Elba, Alabama
Current Conditions -  °F | °C
As of 3:35 PM on Wednesday 26 Nov 2014 (Local Time) from KEDN Reporting Station
Clear Clear  
Wind Chill: 59°   Ceiling: Unl
Heat Index: 59°   Visibility: 10mi
Dew Point: 30°   Wind: 6mph
Humidity: 34%   Direction: 280°W
Pressure: 30.14"   Gusts: NA
Location:  31.41°N, 86.07°W
Report Text: KEDN 262135Z AUTO 28005KT 10SM CLR 15/M01 A3014 RMK AO2
Loading
Personal Weather Stations






























Interactive Weather Map New forecast layout! Learn more

10-Day Weather Forecast

Advertisements
Track Severe Weather on mobile